Thailine 9 — 9WGP9 — position and weather

sailwx.info

Track history (hours):
 
Tides and Currents Weather Stations Pressure Air Temp Water Temp Dewpoint Dewpoint Depression Visibility Wind Speed Wind Dir Waves Ship Positions

Thailine 9

Last reported at 2015-Jul-31 15:30 UTC. Time now 2015-Jul-31 21:27 UTC.
Position N 35°23' E 140°39'.

Length 113 m; draft 4.9 m.

Type: Cargo ship. MMSI: 533791000.

Date/timePositionNaut miles runAvg speedWind from/ knotsBaromVisibWave heightAir tempDewpointWater temp
2015-Jul-31 15:30N 35°23' E 140°39'0 0.1
2015-Jul-31 14:27N 35°23' E 140°39'0 0.0
2015-Jul-31 13:15N 35°23' E 140°39'0 0.0
2015-Jul-31 06:21N 35°23' E 140°39'0 0.1
2015-Jul-31 05:33N 35°23' E 140°39'0 0.1
2015-Jul-31 04:33N 35°23' E 140°39'0 0.0
2015-Jul-31 00:03N 35°23' E 140°39'0 0.0
2015-Jul-30 22:21N 35°23' E 140°39'0 0.1
2015-Jul-30 21:27N 35°23' E 140°39'0 0.1
2015-Jul-30 20:18N 35°23' E 140°39'0 0.0
2015-Jul-30 17:21N 35°23' E 140°39'0 0.1
2015-Jul-30 16:33N 35°23' E 140°39'0 0.0
2015-Jul-30 15:06N 35°23' E 140°39'0 0.1
2015-Jul-30 14:33N 35°23' E 140°39'0 0.0
2015-Jul-30 13:21N 35°23' E 140°39'0 0.0
2015-Jul-30 09:24N 35°23' E 140°39'0 0.0
2015-Jul-30 08:15N 35°23' E 140°39'0 0.0
2015-Jul-30 06:21N 35°23' E 140°39'0 0.0
2015-Jul-30 04:21N 35°23' E 140°39'0 0.0
2015-Jul-30 03:27N 35°23' E 140°39'0 0.0
2015-Jul-30 02:30N 35°23' E 140°39'0 0.1
2015-Jul-30 01:33N 35°23' E 140°39'0 0.0
2015-Jul-30 00:33N 35°23' E 140°39'0 0.0
2015-Jul-29 21:09N 35°23' E 140°39'0 0.0
2015-Jul-29 20:15N 35°23' E 140°39'0 0.0
2015-Jul-29 18:33N 35°23' E 140°39'0 0.1
2015-Jul-29 17:21N 35°23' E 140°39'0 0.0
2015-Jul-29 16:21N 35°23' E 140°39'0 0.0
2015-Jul-29 14:21N 35°23' E 140°39'0 0.1
2015-Jul-29 13:15N 35°23' E 140°39'0 0.0
2015-Jul-29 12:27N 35°23' E 140°39'0 0.0
2015-Jul-29 11:27N 35°23' E 140°39'0 0.0
2015-Jul-29 06:33N 35°23' E 140°39'0 0.1
2015-Jul-29 04:33N 35°23' E 140°39'0 0.0
2015-Jul-29 03:33N 35°23' E 140°39'0 0.0
2015-Jul-29 02:15N 35°23' E 140°39'0 0.0
2015-Jul-29 01:21N 35°23' E 140°39'0 0.0
2015-Jul-28 21:33N 35°23' E 140°39'0 0.0
2015-Jul-28 20:15N 35°23' E 140°39'0 0.0
2015-Jul-28 17:33N 35°23' E 140°39'0 0.0
2015-Jul-28 16:21N 35°23' E 140°39'0 0.0
2015-Jul-27 21:27N 35°23' E 140°39'0 0.0
2015-Jul-27 19:21N 35°23' E 140°39'0 0.0
2015-Jul-27 17:15N 35°23' E 140°39'3010.5
2015-Jul-27 14:25N 35°02' E 140°14'1213.2
2015-Jul-27 13:31N 34°56' E 140°02'20 8.9
2015-Jul-27 11:16N 34°45' E 139°41'811.4
2015-Jul-27 10:33N 34°53' E 139°43'1212.2
2015-Jul-27 09:34N 35°05' E 139°43'1211.8
2015-Jul-27 08:34N 35°16' E 139°45'8 8.0
2015-Jul-27 07:34N 35°22' E 139°39'0 0.0
2015-Jul-27 06:33N 35°22' E 139°39'0 0.0
2015-Jul-27 05:33N 35°22' E 139°39'0 0.0
2015-Jul-27 04:33N 35°22' E 139°39'0 0.0
2015-Jul-27 03:33N 35°22' E 139°39'0 0.0
2015-Jul-27 02:33N 35°22' E 139°39'0 0.0
2015-Jul-27 01:33N 35°22' E 139°39'0 0.0
2015-Jul-27 00:33N 35°22' E 139°39'0 0.0
2015-Jul-26 23:33N 35°22' E 139°39'0 0.0
2015-Jul-26 22:33N 35°22' E 139°39'1 0.9
2015-Jul-26 21:33N 35°23' E 139°40'0 0.0
2015-Jul-26 20:33N 35°23' E 139°40'0 0.0
2015-Jul-26 19:33N 35°23' E 139°40'0 0.0
2015-Jul-26 18:33N 35°23' E 139°40'0 0.1
2015-Jul-26 17:33N 35°23' E 139°40'0 0.0
2015-Jul-26 16:33N 35°23' E 139°40'0 0.0
2015-Jul-26 15:33N 35°23' E 139°40'0 0.1
2015-Jul-26 14:33N 35°23' E 139°40'0 0.0
2015-Jul-26 13:33N 35°23' E 139°40'0 0.1
2015-Jul-26 12:33N 35°23' E 139°40'0 0.0
2015-Jul-26 11:33N 35°23' E 139°40'0 0.0
2015-Jul-26 10:33N 35°23' E 139°40'0 0.0
2015-Jul-26 09:33N 35°23' E 139°40'0 0.0
2015-Jul-26 08:33N 35°23' E 139°40'0 0.0
2015-Jul-26 07:33N 35°23' E 139°40'0 0.0
2015-Jul-26 06:33N 35°23' E 139°40'0 0.0
2015-Jul-26 05:33N 35°23' E 139°40'0 0.0
2015-Jul-26 04:33N 35°23' E 139°40'0 0.1
2015-Jul-26 03:33N 35°23' E 139°40'0 0.0
2015-Jul-26 02:33N 35°23' E 139°40'0 0.0
2015-Jul-26 01:33N 35°23' E 139°40'0 0.0
2015-Jul-26 00:33N 35°23' E 139°40'0 0.0
2015-Jul-25 23:33N 35°23' E 139°40'0 0.0
2015-Jul-25 22:33N 35°23' E 139°40'0 0.0
2015-Jul-25 21:33N 35°23' E 139°40'0 0.0
2015-Jul-25 20:33N 35°23' E 139°40'0 0.0
2015-Jul-25 19:33N 35°23' E 139°40'0 0.0
2015-Jul-25 18:33N 35°23' E 139°40'0 0.0
2015-Jul-25 17:33N 35°23' E 139°40'0 0.0
2015-Jul-25 16:33N 35°23' E 139°40'0 0.0
2015-Jul-25 15:33N 35°23' E 139°40'0 0.0
2015-Jul-25 14:33N 35°23' E 139°40'0 0.1
2015-Jul-25 13:33N 35°23' E 139°40'0 0.0
2015-Jul-25 12:33N 35°23' E 139°40'0 0.1
2015-Jul-25 11:33N 35°23' E 139°40'0 0.0
2015-Jul-25 10:33N 35°23' E 139°40'0 0.0
2015-Jul-25 09:33N 35°23' E 139°40'0 0.4
2015-Jul-25 08:34N 35°23' E 139°40'7 7.4
2015-Jul-25 07:34N 35°23' E 139°49'3 3.2
2015-Jul-25 06:32N 35°22' E 139°53'0 0.0
2015-Jul-25 05:32N 35°22' E 139°53'0 0.0
2015-Jul-25 04:29N 35°22' E 139°53'0 0.0
2015-Jul-25 03:32N 35°22' E 139°53'0 0.0
2015-Jul-25 02:29N 35°22' E 139°53'0 0.1
2015-Jul-25 01:32N 35°22' E 139°53'0 0.0
2015-Jul-25 00:32N 35°22' E 139°53'0 0.0
2015-Jul-24 23:32N 35°22' E 139°53'0 0.0
2015-Jul-24 22:32N 35°22' E 139°53'0 0.0
2015-Jul-24 21:32N 35°22' E 139°53'0 0.0
2015-Jul-24 20:32N 35°22' E 139°53'0 0.0
2015-Jul-24 19:32N 35°22' E 139°53'0 0.0
2015-Jul-24 18:32N 35°22' E 139°53'0 0.0
2015-Jul-24 17:32N 35°22' E 139°53'0 0.0
2015-Jul-24 16:32N 35°22' E 139°53'0 0.0
2015-Jul-24 15:32N 35°22' E 139°53'0 0.0
2015-Jul-24 14:32N 35°22' E 139°53'0 0.0
2015-Jul-24 13:32N 35°22' E 139°53'0 0.0
2015-Jul-24 12:32N 35°22' E 139°53'0 0.0
2015-Jul-24 11:32N 35°22' E 139°53'0 0.0
2015-Jul-24 10:32N 35°22' E 139°53'0 0.0
2015-Jul-24 09:32N 35°22' E 139°53'0 0.0
2015-Jul-24 08:32N 35°22' E 139°53'0 0.0
2015-Jul-24 07:32N 35°22' E 139°53'0 0.0
2015-Jul-24 06:29N 35°22' E 139°53'0 0.1
2015-Jul-24 05:32N 35°22' E 139°53'0 0.0
2015-Jul-24 04:32N 35°22' E 139°53'0 0.0
2015-Jul-24 03:32N 35°22' E 139°53'0 0.0
2015-Jul-24 02:32N 35°22' E 139°53'0 0.0
2015-Jul-24 01:32N 35°22' E 139°53'0 0.0
2015-Jul-24 00:32N 35°22' E 139°53'0 0.0
2015-Jul-23 23:32N 35°22' E 139°53'0 0.0
2015-Jul-23 22:32N 35°22' E 139°53'0 0.0
2015-Jul-23 21:32N 35°22' E 139°53'0 0.0
2015-Jul-23 20:32N 35°22' E 139°53'0 0.0
2015-Jul-23 19:32N 35°22' E 139°53'0 0.0
2015-Jul-23 18:32N 35°22' E 139°53'0 0.0
2015-Jul-23 17:32N 35°22' E 139°53'0 0.0
2015-Jul-23 16:32N 35°22' E 139°53'0 0.0
2015-Jul-23 15:32N 35°22' E 139°53'0 0.0
2015-Jul-23 14:32N 35°22' E 139°53'0 0.0
2015-Jul-23 13:32N 35°22' E 139°53'0 0.0
2015-Jul-23 12:32N 35°22' E 139°53'0 0.0
2015-Jul-23 11:32N 35°22' E 139°53'0 0.0
2015-Jul-23 10:32N 35°22' E 139°53'0 0.0
2015-Jul-23 09:32N 35°22' E 139°53'0 0.0
2015-Jul-23 08:26N 35°22' E 139°53'0 0.0
2015-Jul-23 07:29N 35°22' E 139°53'0 0.0
2015-Jul-23 06:32N 35°22' E 139°53'0 0.0
2015-Jul-23 05:26N 35°22' E 139°53'0 0.0
2015-Jul-23 04:32N 35°22' E 139°53'0 0.0
2015-Jul-23 03:32N 35°22' E 139°53'0 0.0
2015-Jul-23 02:32N 35°22' E 139°53'0 0.0
2015-Jul-23 01:32N 35°22' E 139°53'0 0.0
2015-Jul-23 00:32N 35°22' E 139°53'0 0.0
2015-Jul-22 23:32N 35°22' E 139°53'0 0.0
2015-Jul-22 22:32N 35°22' E 139°53'0 0.0
2015-Jul-22 21:23N 35°22' E 139°53'0 0.1
2015-Jul-22 20:32N 35°22' E 139°53'0 0.0
2015-Jul-22 19:32N 35°22' E 139°53'0 0.0
2015-Jul-22 18:29N 35°22' E 139°53'0 0.1
2015-Jul-22 17:32N 35°22' E 139°53'0 0.0
2015-Jul-22 16:32N 35°22' E 139°53'0 0.0
2015-Jul-22 15:32N 35°22' E 139°53'0 0.0
2015-Jul-22 14:32N 35°22' E 139°53'0 0.0
2015-Jul-22 13:23N 35°22' E 139°53'0 0.0
2015-Jul-22 12:23N 35°22' E 139°53'0 0.1
2015-Jul-22 11:32N 35°22' E 139°53'0 0.0
2015-Jul-22 10:32N 35°22' E 139°53'0 0.0
2015-Jul-22 09:32N 35°22' E 139°53'0 0.0
2015-Jul-22 08:32N 35°22' E 139°53'0 0.0
2015-Jul-22 07:29N 35°22' E 139°53'0 0.0
2015-Jul-22 06:32N 35°22' E 139°53'0 0.0
2015-Jul-22 05:29N 35°22' E 139°53'0 0.0
2015-Jul-22 04:32N 35°22' E 139°53'0 0.0
2015-Jul-22 03:32N 35°22' E 139°53'0 0.0
2015-Jul-22 02:32N 35°22' E 139°53'0 0.0
2015-Jul-22 01:32N 35°22' E 139°53'0 0.0
2015-Jul-22 00:32N 35°22' E 139°53'0 0.0
2015-Jul-21 23:29N 35°22' E 139°53'0 0.1
2015-Jul-21 22:32N 35°22' E 139°53'0 0.0
2015-Jul-21 21:32N 35°22' E 139°53'0 0.0
2015-Jul-21 20:32N 35°22' E 139°53'0 0.0
2015-Jul-21 19:29N 35°22' E 139°53'0 0.0
2015-Jul-21 18:29N 35°22' E 139°53'0 0.0
2015-Jul-21 17:32N 35°22' E 139°53'0 0.0
2015-Jul-21 16:29N 35°22' E 139°53'0 0.1
2015-Jul-21 15:32N 35°22' E 139°53'  
Track history (hours):
 
Tides and Currents Weather Stations Pressure Air Temp Water Temp Dewpoint Dewpoint Depression Visibility Wind Speed Wind Dir Waves Ship Positions

Thailine 9

Last reported at 2015-Jul-31 15:30 UTC. Time now 2015-Jul-31 21:27 UTC.
Position N 35°23' E 140°39'.

Length 113 m; draft 4.9 m.

Type: Cargo ship. MMSI: 533791000.

Date/timePositionNaut miles runAvg speedWind from/ knotsBaromVisibWave heightAir tempDewpointWater temp
2015-Jul-31 15:30N 35°23' E 140°39'0 0.1
2015-Jul-31 14:27N 35°23' E 140°39'0 0.0
2015-Jul-31 13:15N 35°23' E 140°39'0 0.0
2015-Jul-31 06:21N 35°23' E 140°39'0 0.1
2015-Jul-31 05:33N 35°23' E 140°39'0 0.1
2015-Jul-31 04:33N 35°23' E 140°39'0 0.0
2015-Jul-31 00:03N 35°23' E 140°39'0 0.0
2015-Jul-30 22:21N 35°23' E 140°39'0 0.1
2015-Jul-30 21:27N 35°23' E 140°39'0 0.1
2015-Jul-30 20:18N 35°23' E 140°39'0 0.0
2015-Jul-30 17:21N 35°23' E 140°39'0 0.1
2015-Jul-30 16:33N 35°23' E 140°39'0 0.0
2015-Jul-30 15:06N 35°23' E 140°39'0 0.1
2015-Jul-30 14:33N 35°23' E 140°39'0 0.0
2015-Jul-30 13:21N 35°23' E 140°39'0 0.0
2015-Jul-30 09:24N 35°23' E 140°39'0 0.0
2015-Jul-30 08:15N 35°23' E 140°39'0 0.0
2015-Jul-30 06:21N 35°23' E 140°39'0 0.0
2015-Jul-30 04:21N 35°23' E 140°39'0 0.0
2015-Jul-30 03:27N 35°23' E 140°39'0 0.0
2015-Jul-30 02:30N 35°23' E 140°39'0 0.1
2015-Jul-30 01:33N 35°23' E 140°39'0 0.0
2015-Jul-30 00:33N 35°23' E 140°39'0 0.0
2015-Jul-29 21:09N 35°23' E 140°39'0 0.0
2015-Jul-29 20:15N 35°23' E 140°39'0 0.0
2015-Jul-29 18:33N 35°23' E 140°39'0 0.1
2015-Jul-29 17:21N 35°23' E 140°39'0 0.0
2015-Jul-29 16:21N 35°23' E 140°39'0 0.0
2015-Jul-29 14:21N 35°23' E 140°39'0 0.1
2015-Jul-29 13:15N 35°23' E 140°39'0 0.0
2015-Jul-29 12:27N 35°23' E 140°39'0 0.0
2015-Jul-29 11:27N 35°23' E 140°39'0 0.0
2015-Jul-29 06:33N 35°23' E 140°39'0 0.1
2015-Jul-29 04:33N 35°23' E 140°39'0 0.0
2015-Jul-29 03:33N 35°23' E 140°39'0 0.0
2015-Jul-29 02:15N 35°23' E 140°39'0 0.0
2015-Jul-29 01:21N 35°23' E 140°39'0 0.0
2015-Jul-28 21:33N 35°23' E 140°39'0 0.0
2015-Jul-28 20:15N 35°23' E 140°39'0 0.0
2015-Jul-28 17:33N 35°23' E 140°39'0 0.0
2015-Jul-28 16:21N 35°23' E 140°39'0 0.0
2015-Jul-27 21:27N 35°23' E 140°39'0 0.0
2015-Jul-27 19:21N 35°23' E 140°39'0 0.0
2015-Jul-27 17:15N 35°23' E 140°39'3010.5
2015-Jul-27 14:25N 35°02' E 140°14'1213.2
2015-Jul-27 13:31N 34°56' E 140°02'20 8.9
2015-Jul-27 11:16N 34°45' E 139°41'811.4
2015-Jul-27 10:33N 34°53' E 139°43'1212.2
2015-Jul-27 09:34N 35°05' E 139°43'1211.8
2015-Jul-27 08:34N 35°16' E 139°45'8 8.0
2015-Jul-27 07:34N 35°22' E 139°39'0 0.0
2015-Jul-27 06:33N 35°22' E 139°39'0 0.0
2015-Jul-27 05:33N 35°22' E 139°39'0 0.0
2015-Jul-27 04:33N 35°22' E 139°39'0 0.0
2015-Jul-27 03:33N 35°22' E 139°39'0 0.0
2015-Jul-27 02:33N 35°22' E 139°39'0 0.0
2015-Jul-27 01:33N 35°22' E 139°39'0 0.0
2015-Jul-27 00:33N 35°22' E 139°39'0 0.0
2015-Jul-26 23:33N 35°22' E 139°39'0 0.0
2015-Jul-26 22:33N 35°22' E 139°39'1 0.9
2015-Jul-26 21:33N 35°23' E 139°40'0 0.0
2015-Jul-26 20:33N 35°23' E 139°40'0 0.0
2015-Jul-26 19:33N 35°23' E 139°40'0 0.0
2015-Jul-26 18:33N 35°23' E 139°40'0 0.1
2015-Jul-26 17:33N 35°23' E 139°40'0 0.0
2015-Jul-26 16:33N 35°23' E 139°40'0 0.0
2015-Jul-26 15:33N 35°23' E 139°40'0 0.1
2015-Jul-26 14:33N 35°23' E 139°40'0 0.0
2015-Jul-26 13:33N 35°23' E 139°40'0 0.1
2015-Jul-26 12:33N 35°23' E 139°40'0 0.0
2015-Jul-26 11:33N 35°23' E 139°40'0 0.0
2015-Jul-26 10:33N 35°23' E 139°40'0 0.0
2015-Jul-26 09:33N 35°23' E 139°40'0 0.0
2015-Jul-26 08:33N 35°23' E 139°40'0 0.0
2015-Jul-26 07:33N 35°23' E 139°40'0 0.0
2015-Jul-26 06:33N 35°23' E 139°40'0 0.0
2015-Jul-26 05:33N 35°23' E 139°40'0 0.0
2015-Jul-26 04:33N 35°23' E 139°40'0 0.1
2015-Jul-26 03:33N 35°23' E 139°40'0 0.0
2015-Jul-26 02:33N 35°23' E 139°40'0 0.0
2015-Jul-26 01:33N 35°23' E 139°40'0 0.0
2015-Jul-26 00:33N 35°23' E 139°40'0 0.0
2015-Jul-25 23:33N 35°23' E 139°40'0 0.0
2015-Jul-25 22:33N 35°23' E 139°40'0 0.0
2015-Jul-25 21:33N 35°23' E 139°40'0 0.0
2015-Jul-25 20:33N 35°23' E 139°40'0 0.0
2015-Jul-25 19:33N 35°23' E 139°40'0 0.0
2015-Jul-25 18:33N 35°23' E 139°40'0 0.0
2015-Jul-25 17:33N 35°23' E 139°40'0 0.0
2015-Jul-25 16:33N 35°23' E 139°40'0 0.0
2015-Jul-25 15:33N 35°23' E 139°40'0 0.0
2015-Jul-25 14:33N 35°23' E 139°40'0 0.1
2015-Jul-25 13:33N 35°23' E 139°40'0 0.0
2015-Jul-25 12:33N 35°23' E 139°40'0 0.1
2015-Jul-25 11:33N 35°23' E 139°40'0 0.0
2015-Jul-25 10:33N 35°23' E 139°40'0 0.0
2015-Jul-25 09:33N 35°23' E 139°40'0 0.4
2015-Jul-25 08:34N 35°23' E 139°40'7 7.4
2015-Jul-25 07:34N 35°23' E 139°49'3 3.2
2015-Jul-25 06:32N 35°22' E 139°53'0 0.0
2015-Jul-25 05:32N 35°22' E 139°53'0 0.0
2015-Jul-25 04:29N 35°22' E 139°53'0 0.0
2015-Jul-25 03:32N 35°22' E 139°53'0 0.0
2015-Jul-25 02:29N 35°22' E 139°53'0 0.1
2015-Jul-25 01:32N 35°22' E 139°53'0 0.0
2015-Jul-25 00:32N 35°22' E 139°53'0 0.0
2015-Jul-24 23:32N 35°22' E 139°53'0 0.0
2015-Jul-24 22:32N 35°22' E 139°53'0 0.0
2015-Jul-24 21:32N 35°22' E 139°53'0 0.0
2015-Jul-24 20:32N 35°22' E 139°53'0 0.0
2015-Jul-24 19:32N 35°22' E 139°53'0 0.0
2015-Jul-24 18:32N 35°22' E 139°53'0 0.0
2015-Jul-24 17:32N 35°22' E 139°53'0 0.0
2015-Jul-24 16:32N 35°22' E 139°53'0 0.0
2015-Jul-24 15:32N 35°22' E 139°53'0 0.0
2015-Jul-24 14:32N 35°22' E 139°53'0 0.0
2015-Jul-24 13:32N 35°22' E 139°53'0 0.0
2015-Jul-24 12:32N 35°22' E 139°53'0 0.0
2015-Jul-24 11:32N 35°22' E 139°53'0 0.0
2015-Jul-24 10:32N 35°22' E 139°53'0 0.0
2015-Jul-24 09:32N 35°22' E 139°53'0 0.0
2015-Jul-24 08:32N 35°22' E 139°53'0 0.0
2015-Jul-24 07:32N 35°22' E 139°53'0 0.0
2015-Jul-24 06:29N 35°22' E 139°53'0 0.1
2015-Jul-24 05:32N 35°22' E 139°53'0 0.0
2015-Jul-24 04:32N 35°22' E 139°53'0 0.0
2015-Jul-24 03:32N 35°22' E 139°53'0 0.0
2015-Jul-24 02:32N 35°22' E 139°53'0 0.0
2015-Jul-24 01:32N 35°22' E 139°53'0 0.0
2015-Jul-24 00:32N 35°22' E 139°53'0 0.0
2015-Jul-23 23:32N 35°22' E 139°53'0 0.0
2015-Jul-23 22:32N 35°22' E 139°53'0 0.0
2015-Jul-23 21:32N 35°22' E 139°53'0 0.0
2015-Jul-23 20:32N 35°22' E 139°53'0 0.0
2015-Jul-23 19:32N 35°22' E 139°53'0 0.0
2015-Jul-23 18:32N 35°22' E 139°53'0 0.0
2015-Jul-23 17:32N 35°22' E 139°53'0 0.0
2015-Jul-23 16:32N 35°22' E 139°53'0 0.0
2015-Jul-23 15:32N 35°22' E 139°53'0 0.0
2015-Jul-23 14:32N 35°22' E 139°53'0 0.0
2015-Jul-23 13:32N 35°22' E 139°53'0 0.0
2015-Jul-23 12:32N 35°22' E 139°53'0 0.0
2015-Jul-23 11:32N 35°22' E 139°53'0 0.0
2015-Jul-23 10:32N 35°22' E 139°53'0 0.0
2015-Jul-23 09:32N 35°22' E 139°53'0 0.0
2015-Jul-23 08:26N 35°22' E 139°53'0 0.0
2015-Jul-23 07:29N 35°22' E 139°53'0 0.0
2015-Jul-23 06:32N 35°22' E 139°53'0 0.0
2015-Jul-23 05:26N 35°22' E 139°53'0 0.0
2015-Jul-23 04:32N 35°22' E 139°53'0 0.0
2015-Jul-23 03:32N 35°22' E 139°53'0 0.0
2015-Jul-23 02:32N 35°22' E 139°53'0 0.0
2015-Jul-23 01:32N 35°22' E 139°53'0 0.0
2015-Jul-23 00:32N 35°22' E 139°53'0 0.0
2015-Jul-22 23:32N 35°22' E 139°53'0 0.0
2015-Jul-22 22:32N 35°22' E 139°53'0 0.0
2015-Jul-22 21:23N 35°22' E 139°53'0 0.1
2015-Jul-22 20:32N 35°22' E 139°53'0 0.0
2015-Jul-22 19:32N 35°22' E 139°53'0 0.0
2015-Jul-22 18:29N 35°22' E 139°53'0 0.1
2015-Jul-22 17:32N 35°22' E 139°53'0 0.0
2015-Jul-22 16:32N 35°22' E 139°53'0 0.0
2015-Jul-22 15:32N 35°22' E 139°53'0 0.0
2015-Jul-22 14:32N 35°22' E 139°53'0 0.0
2015-Jul-22 13:23N 35°22' E 139°53'0 0.0
2015-Jul-22 12:23N 35°22' E 139°53'0 0.1
2015-Jul-22 11:32N 35°22' E 139°53'0 0.0
2015-Jul-22 10:32N 35°22' E 139°53'0 0.0
2015-Jul-22 09:32N 35°22' E 139°53'0 0.0
2015-Jul-22 08:32N 35°22' E 139°53'0 0.0
2015-Jul-22 07:29N 35°22' E 139°53'0 0.0
2015-Jul-22 06:32N 35°22' E 139°53'0 0.0
2015-Jul-22 05:29N 35°22' E 139°53'0 0.0
2015-Jul-22 04:32N 35°22' E 139°53'0 0.0
2015-Jul-22 03:32N 35°22' E 139°53'0 0.0
2015-Jul-22 02:32N 35°22' E 139°53'0 0.0
2015-Jul-22 01:32N 35°22' E 139°53'0 0.0
2015-Jul-22 00:32N 35°22' E 139°53'0 0.0
2015-Jul-21 23:29N 35°22' E 139°53'0 0.1
2015-Jul-21 22:32N 35°22' E 139°53'0 0.0
2015-Jul-21 21:32N 35°22' E 139°53'0 0.0
2015-Jul-21 20:32N 35°22' E 139°53'0 0.0
2015-Jul-21 19:29N 35°22' E 139°53'0 0.0
2015-Jul-21 18:29N 35°22' E 139°53'0 0.0
2015-Jul-21 17:32N 35°22' E 139°53'0 0.0
2015-Jul-21 16:29N 35°22' E 139°53'0 0.1
2015-Jul-21 15:32N 35°22' E 139°53'  

Dump ship's entire track history